Time;durP1;ratioP1;P1;durP2;ratioP2;P2;SDS_P1;SDS_P2;PMS_P1;PMS_P2;Temp;Humidity;BMP_temperature;BMP_pressure;BME280_temperature;BME280_humidity;BME280_pressure;Samples;Min_cycle;Max_cycle;Signal;HPM_P1;HPM_P2
2021/10/11 00:02:00;;;;;;;2.40;1.15;;;13.50;54.60;;;;;;5033815;28;20036;-76
2021/10/11 00:04:26;;;;;;;2.00;1.30;;;13.50;54.40;;;;;;5034455;28;20098;-76
2021/10/11 00:06:52;;;;;;;1.50;1.23;;;13.50;54.70;;;;;;5033825;28;20036;-76
2021/10/11 00:09:18;;;;;;;3.05;1.38;;;13.50;54.60;;;;;;5034102;28;20033;-76
2021/10/11 00:11:44;;;;;;;2.08;1.05;;;13.50;54.80;;;;;;5033830;28;20055;-77
2021/10/11 00:14:09;;;;;;;2.13;1.10;;;13.40;54.90;;;;;;5033065;28;20549;-77
2021/10/11 00:16:35;;;;;;;1.98;1.30;;;13.50;54.70;;;;;;5034041;28;20464;-75
2021/10/11 00:19:03;;;;;;;1.60;1.27;;;13.50;54.30;;;;;;5033617;28;20029;-75
2021/10/11 00:21:29;;;;;;;1.40;1.15;;;13.50;54.30;;;;;;5034064;28;20116;-77
2021/10/11 00:23:55;;;;;;;1.80;1.40;;;13.50;54.60;;;;;;5034047;28;20113;-76
2021/10/11 00:26:20;;;;;;;1.35;1.05;;;13.40;54.90;;;;;;5033693;28;20025;-72
2021/10/11 00:28:46;;;;;;;1.50;1.20;;;13.40;55.00;;;;;;5033466;28;20033;-77
2021/10/11 00:31:12;;;;;;;1.98;1.10;;;13.30;54.90;;;;;;5033611;28;20056;-76
2021/10/11 00:33:38;;;;;;;1.27;1.10;;;13.30;55.00;;;;;;5033969;28;20044;-75
2021/10/11 00:36:04;;;;;;;2.10;1.20;;;13.30;55.30;;;;;;5033674;28;20022;-75
2021/10/11 00:38:30;;;;;;;1.67;1.00;;;13.20;56.10;;;;;;5033267;28;20021;-77
2021/10/11 00:40:56;;;;;;;1.50;1.08;;;13.20;56.40;;;;;;5033249;28;20040;-74
2021/10/11 00:43:21;;;;;;;2.75;1.02;;;13.20;56.90;;;;;;5033452;28;20029;-76
2021/10/11 00:45:47;;;;;;;2.00;1.10;;;13.10;56.70;;;;;;5033678;28;20105;-75
2021/10/11 00:48:13;;;;;;;1.75;1.10;;;13.10;57.00;;;;;;5033501;28;20029;-76
2021/10/11 00:50:39;;;;;;;1.80;1.17;;;13.10;57.20;;;;;;5032809;28;20031;-77
2021/10/11 00:53:05;;;;;;;1.75;1.10;;;13.10;57.70;;;;;;5033204;28;20059;-76
2021/10/11 00:55:31;;;;;;;2.05;1.10;;;13.10;58.10;;;;;;5033581;28;20060;-76
2021/10/11 00:57:57;;;;;;;1.83;1.30;;;13.00;58.10;;;;;;5031840;28;20036;-77
2021/10/11 01:00:23;;;;;;;1.98;1.27;;;13.00;57.90;;;;;;5030108;28;20032;-77
2021/10/11 01:02:48;;;;;;;1.58;1.20;;;13.00;57.90;;;;;;5030227;28;20033;-75
2021/10/11 01:05:14;;;;;;;1.88;1.10;;;13.00;57.70;;;;;;5032006;28;20029;-76
2021/10/11 01:07:40;;;;;;;2.50;1.38;;;13.00;57.40;;;;;;5033167;28;20025;-73
2021/10/11 01:10:06;;;;;;;1.95;1.30;;;13.00;56.90;;;;;;5032971;28;20401;-76
2021/10/11 01:12:32;;;;;;;1.50;1.30;;;13.00;56.30;;;;;;5032642;28;20034;-70
2021/10/11 01:14:58;;;;;;;1.63;1.20;;;13.00;56.10;;;;;;5032619;28;20466;-77
2021/10/11 01:17:23;;;;;;;2.45;1.10;;;13.00;56.10;;;;;;5032711;28;20466;-77
2021/10/11 01:19:50;;;;;;;2.95;1.30;;;13.00;56.00;;;;;;5033062;28;20171;-77
2021/10/11 01:22:17;;;;;;;3.00;1.10;;;13.00;56.60;;;;;;5032722;28;20025;-77
2021/10/11 01:24:43;;;;;;;1.60;1.08;;;13.00;57.00;;;;;;5032961;28;20026;-77
2021/10/11 01:27:09;;;;;;;2.28;1.20;;;13.00;57.50;;;;;;5037999;28;20528;-77
2021/10/11 01:29:35;;;;;;;1.67;1.15;;;12.90;57.30;;;;;;5038770;28;20029;-71
2021/10/11 01:32:01;;;;;;;1.30;1.10;;;12.90;57.10;;;;;;5039090;28;20103;-73
2021/10/11 01:34:27;;;;;;;1.52;1.15;;;13.00;56.70;;;;;;5039319;28;20484;-77
2021/10/11 01:36:52;;;;;;;2.80;1.40;;;13.00;56.90;;;;;;5039300;28;20426;-76
2021/10/11 01:39:18;;;;;;;1.50;1.10;;;13.00;57.00;;;;;;5039427;28;20519;-76
2021/10/11 01:41:44;;;;;;;1.83;1.10;;;13.00;57.00;;;;;;5039055;28;20387;-76
2021/10/11 01:44:10;;;;;;;2.97;1.13;;;12.90;57.80;;;;;;5039083;28;20021;-77
2021/10/11 01:46:36;;;;;;;1.92;1.27;;;13.00;57.80;;;;;;5039312;28;20486;-76
2021/10/11 01:49:02;;;;;;;1.77;1.20;;;12.90;57.60;;;;;;5039048;28;20021;-76
2021/10/11 01:51:28;;;;;;;1.77;0.95;;;12.90;57.90;;;;;;5038970;28;20034;-74
2021/10/11 01:53:53;;;;;;;3.08;1.13;;;12.90;58.60;;;;;;5039013;28;20028;-74
2021/10/11 01:56:19;;;;;;;1.50;1.30;;;12.90;58.50;;;;;;5039137;28;20029;-76
2021/10/11 01:58:45;;;;;;;2.13;1.35;;;12.80;58.20;;;;;;5038941;28;20095;-76
2021/10/11 02:01:11;;;;;;;4.32;2.05;;;12.80;58.80;;;;;;5039102;28;20033;-75
2021/10/11 02:03:37;;;;;;;1.90;1.30;;;12.80;58.90;;;;;;5039136;28;20029;-75
2021/10/11 02:06:02;;;;;;;5.05;1.20;;;12.80;59.40;;;;;;5039129;28;20030;-75
2021/10/11 02:08:28;;;;;;;4.88;1.30;;;12.80;59.40;;;;;;5039137;28;20029;-76
2021/10/11 02:10:54;;;;;;;1.77;1.20;;;12.70;59.10;;;;;;5038852;28;20441;-75
2021/10/11 02:13:19;;;;;;;1.10;1.00;;;12.70;59.40;;;;;;5039166;28;20033;-76
2021/10/11 02:15:45;;;;;;;2.20;1.40;;;12.70;59.60;;;;;;5039285;28;20026;-76
2021/10/11 02:18:11;;;;;;;1.80;1.25;;;12.70;59.80;;;;;;5039208;28;20494;-76
2021/10/11 02:20:37;;;;;;;3.63;1.35;;;12.70;60.50;;;;;;5038970;28;20033;-77
2021/10/11 02:23:04;;;;;;;2.03;1.20;;;12.70;60.40;;;;;;5039155;28;20441;-77
2021/10/11 02:25:30;;;;;;;2.58;1.38;;;12.70;59.80;;;;;;5038768;28;20033;-69
2021/10/11 02:27:57;;;;;;;3.25;1.48;;;12.70;59.90;;;;;;5038932;28;20466;-76
2021/10/11 02:30:22;;;;;;;2.03;1.30;;;12.80;59.60;;;;;;5039187;28;20448;-76
2021/10/11 02:32:48;;;;;;;1.60;1.08;;;12.70;59.50;;;;;;5038856;28;20155;-78
2021/10/11 02:35:16;;;;;;;1.65;1.20;;;12.70;59.10;;;;;;5038745;28;20155;-76
2021/10/11 02:37:43;;;;;;;2.83;1.20;;;12.80;59.20;;;;;;5035723;28;20470;-77
2021/10/11 02:40:09;;;;;;;1.73;1.00;;;12.80;59.40;;;;;;5035483;28;20022;-75
2021/10/11 02:42:35;;;;;;;2.30;1.10;;;12.80;59.40;;;;;;5035681;28;20384;-75
2021/10/11 02:45:01;;;;;;;2.08;1.30;;;12.80;59.40;;;;;;5035704;28;20029;-76
2021/10/11 02:47:27;;;;;;;1.98;1.00;;;12.80;59.20;;;;;;5035754;28;20061;-77
2021/10/11 02:49:53;;;;;;;1.98;1.30;;;12.80;59.10;;;;;;5035249;28;20072;-77
2021/10/11 02:52:18;;;;;;;2.05;1.60;;;12.80;59.20;;;;;;5035281;28;20034;-77
2021/10/11 02:54:44;;;;;;;3.60;2.05;;;12.80;59.90;;;;;;5035263;28;20029;-77
2021/10/11 02:57:10;;;;;;;3.85;1.92;;;12.80;60.60;;;;;;5035299;28;20032;-79
2021/10/11 02:59:35;;;;;;;3.15;1.95;;;12.80;61.00;;;;;;5035144;28;20076;-77
2021/10/11 03:02:01;;;;;;;3.55;2.00;;;12.80;61.10;;;;;;5035338;28;20037;-77
2021/10/11 03:04:27;;;;;;;5.40;1.88;;;12.80;61.00;;;;;;5034907;28;20033;-77
2021/10/11 03:06:53;;;;;;;3.92;1.90;;;12.80;60.60;;;;;;5035145;28;20386;-77
2021/10/11 03:09:18;;;;;;;2.72;2.03;;;12.70;61.50;;;;;;5035330;28;20454;-78
2021/10/11 03:11:44;;;;;;;3.45;1.75;;;12.70;61.80;;;;;;5035134;28;20037;-71
2021/10/11 03:14:10;;;;;;;2.88;2.10;;;12.70;61.40;;;;;;5035185;28;20030;-77
2021/10/11 03:16:36;;;;;;;4.30;2.00;;;12.70;61.60;;;;;;5035035;28;20474;-76
2021/10/11 03:19:01;;;;;;;3.95;2.53;;;12.60;62.80;;;;;;5034920;28;20398;-77
2021/10/11 03:21:27;;;;;;;3.30;2.55;;;12.50;62.60;;;;;;5034914;28;20022;-76
2021/10/11 03:23:53;;;;;;;3.67;2.50;;;12.50;63.50;;;;;;5034678;28;20037;-76
2021/10/11 03:26:20;;;;;;;5.45;2.80;;;12.50;63.50;;;;;;5034835;28;20032;-76
2021/10/11 03:28:46;;;;;;;3.92;2.80;;;12.50;63.60;;;;;;5034742;28;20028;-72
2021/10/11 03:31:12;;;;;;;4.60;2.85;;;12.50;63.30;;;;;;5034233;28;20053;-78
2021/10/11 03:33:38;;;;;;;7.80;3.15;;;12.50;63.40;;;;;;5034746;28;20394;-76
2021/10/11 03:36:05;;;;;;;3.65;2.53;;;12.40;64.60;;;;;;5034647;28;20029;-76
2021/10/11 03:38:31;;;;;;;4.90;2.80;;;12.40;64.70;;;;;;5034573;28;20037;-75
2021/10/11 03:40:56;;;;;;;6.00;3.28;;;12.40;64.40;;;;;;5034334;28;20044;-77
2021/10/11 03:43:22;;;;;;;6.82;2.70;;;12.40;64.30;;;;;;5034742;28;20022;-76
2021/10/11 03:45:48;;;;;;;6.47;2.80;;;12.40;64.60;;;;;;5034478;28;20110;-72
2021/10/11 03:48:13;;;;;;;5.38;2.55;;;12.30;65.10;;;;;;5034139;28;20030;-75
2021/10/11 03:50:39;;;;;;;3.65;2.50;;;12.30;64.20;;;;;;5034008;28;20029;-76
2021/10/11 03:53:05;;;;;;;3.45;2.30;;;12.30;64.60;;;;;;5034715;28;20038;-77
2021/10/11 03:55:31;;;;;;;5.97;2.63;;;12.30;64.50;;;;;;5034243;28;20087;-76
2021/10/11 03:57:57;;;;;;;2.97;2.28;;;12.30;64.70;;;;;;5033783;28;20041;-76
2021/10/11 04:00:22;;;;;;;3.08;1.80;;;12.30;64.60;;;;;;5033892;28;20130;-75
2021/10/11 04:02:48;;;;;;;4.53;1.92;;;12.30;63.10;;;;;;5034145;28;20171;-77
2021/10/11 04:05:14;;;;;;;3.35;1.85;;;12.30;63.30;;;;;;5034079;28;20034;-75
2021/10/11 04:07:42;;;;;;;2.63;1.67;;;12.30;63.50;;;;;;5033839;28;20371;-76
2021/10/11 04:10:10;;;;;;;4.38;2.30;;;12.40;62.70;;;;;;5034361;28;20044;-77
2021/10/11 04:12:37;;;;;;;4.18;2.05;;;12.40;62.20;;;;;;5034023;28;20033;-76
2021/10/11 04:15:05;;;;;;;4.43;2.30;;;12.40;62.30;;;;;;5033896;28;20540;-76
2021/10/11 04:17:31;;;;;;;6.88;2.17;;;12.40;62.50;;;;;;5034094;28;20029;-77
2021/10/11 04:19:57;;;;;;;5.47;2.53;;;12.40;63.50;;;;;;5033741;28;20053;-76
2021/10/11 04:22:23;;;;;;;5.70;2.42;;;12.30;63.70;;;;;;5033468;28;20029;-69
2021/10/11 04:24:49;;;;;;;3.83;2.30;;;12.30;64.20;;;;;;5033918;28;20021;-77
2021/10/11 04:27:15;;;;;;;4.03;2.40;;;12.20;65.10;;;;;;5033908;28;20440;-76
2021/10/11 04:29:41;;;;;;;5.72;2.30;;;12.20;65.00;;;;;;5033656;28;20029;-75
2021/10/11 04:32:07;;;;;;;8.07;2.70;;;12.20;64.90;;;;;;5033460;28;20485;-76
2021/10/11 04:34:32;;;;;;;4.05;2.42;;;12.20;65.40;;;;;;5033378;28;20032;-77
2021/10/11 04:36:58;;;;;;;6.38;2.55;;;12.10;65.60;;;;;;5033287;28;20120;-76
2021/10/11 04:39:24;;;;;;;7.22;2.72;;;12.10;65.40;;;;;;5033476;28;20029;-74
2021/10/11 04:41:50;;;;;;;4.45;2.70;;;12.10;65.90;;;;;;5033963;28;20033;-75
2021/10/11 04:44:16;;;;;;;4.25;2.47;;;12.00;65.80;;;;;;5033692;28;20017;-75
2021/10/11 04:46:41;;;;;;;3.53;2.35;;;12.00;65.90;;;;;;5033483;28;20029;-76
2021/10/11 04:49:07;;;;;;;5.57;2.70;;;12.00;65.90;;;;;;5033237;28;20033;-75
2021/10/11 04:51:33;;;;;;;6.75;2.60;;;12.00;66.20;;;;;;5033271;28;20056;-76
2021/10/11 04:53:58;;;;;;;4.47;2.80;;;12.00;66.40;;;;;;5033331;28;20034;-76
2021/10/11 04:56:24;;;;;;;4.05;2.85;;;12.10;66.50;;;;;;5032993;28;20048;-74
2021/10/11 04:58:50;;;;;;;6.00;2.45;;;12.00;66.50;;;;;;5033113;28;20033;-76
2021/10/11 05:01:17;;;;;;;4.35;2.80;;;12.00;66.00;;;;;;5032664;28;20029;-73
2021/10/11 05:03:43;;;;;;;7.00;2.67;;;12.00;65.70;;;;;;5033036;28;20053;-76
2021/10/11 05:06:09;;;;;;;4.28;2.80;;;11.90;66.00;;;;;;5033112;28;20035;-75
2021/10/11 05:08:35;;;;;;;5.35;2.72;;;11.90;66.10;;;;;;5032910;28;20038;-76
2021/10/11 05:11:01;;;;;;;9.52;2.80;;;11.90;66.40;;;;;;5032940;28;20065;-75
2021/10/11 05:13:26;;;;;;;4.07;3.00;;;11.90;66.80;;;;;;5032874;28;20736;-76
2021/10/11 05:15:52;;;;;;;4.65;3.00;;;11.90;67.20;;;;;;5032964;28;20026;-73
2021/10/11 05:18:18;;;;;;;7.88;2.92;;;11.90;67.30;;;;;;5032577;28;20027;-77
2021/10/11 05:20:51;;;;;;;5.60;3.10;;;11.90;67.40;;;;;;5033121;28;20041;-76
2021/10/11 05:23:18;;;;;;;4.65;3.10;;;11.90;67.10;;;;;;5032832;28;20026;-73
2021/10/11 05:25:45;;;;;;;5.68;3.15;;;11.90;67.30;;;;;;5033117;28;20544;-76
2021/10/11 05:28:10;;;;;;;7.85;2.90;;;11.90;67.30;;;;;;5032630;28;20018;-76
2021/10/11 05:30:40;;;;;;;4.20;3.00;;;12.00;67.20;;;;;;5032255;28;20525;-77
2021/10/11 05:33:07;;;;;;;6.18;2.63;;;12.00;67.40;;;;;;5033221;28;20098;-77
2021/10/11 05:35:36;;;;;;;4.68;2.65;;;12.00;67.30;;;;;;5032510;28;20049;-77
2021/10/11 05:38:04;;;;;;;6.85;2.80;;;12.00;67.30;;;;;;5032238;28;20034;-76
2021/10/11 05:40:31;;;;;;;7.43;2.72;;;12.00;67.40;;;;;;5032150;28;20036;-75
2021/10/11 05:42:57;;;;;;;6.43;2.80;;;11.90;67.40;;;;;;5032305;28;20575;-75
2021/10/11 05:45:22;;;;;;;5.97;2.78;;;11.90;67.80;;;;;;5032551;28;20022;-76
2021/10/11 05:47:48;;;;;;;4.72;3.50;;;12.00;68.00;;;;;;5032369;28;20028;-76
2021/10/11 05:50:14;;;;;;;5.05;3.08;;;12.00;68.40;;;;;;5031817;28;20087;-76
2021/10/11 05:52:40;;;;;;;5.35;2.88;;;11.90;68.30;;;;;;5031490;28;20033;-75
2021/10/11 05:55:06;;;;;;;5.95;2.72;;;12.00;68.40;;;;;;5031855;28;20032;-77
2021/10/11 05:57:32;;;;;;;13.30;3.58;;;12.00;68.10;;;;;;5031517;28;20029;-77
2021/10/11 05:59:59;;;;;;;4.63;2.92;;;12.00;68.40;;;;;;5031768;28;20072;-76
2021/10/11 06:02:25;;;;;;;4.63;2.60;;;12.00;68.60;;;;;;5032442;28;20025;-77
2021/10/11 06:04:51;;;;;;;3.85;2.25;;;12.00;69.20;;;;;;5032415;28;20041;-76
2021/10/11 06:07:16;;;;;;;5.35;2.70;;;12.00;69.00;;;;;;5032604;28;20098;-76
2021/10/11 06:09:42;;;;;;;5.38;2.80;;;12.00;68.80;;;;;;5032258;28;20088;-75
2021/10/11 06:12:08;;;;;;;5.30;2.90;;;12.10;69.00;;;;;;5033015;28;20116;-76
2021/10/11 06:14:33;;;;;;;5.63;3.17;;;12.00;69.00;;;;;;5036047;28;20067;-76
2021/10/11 06:16:59;;;;;;;10.02;2.90;;;12.00;69.00;;;;;;5035593;28;20025;-77
2021/10/11 06:19:25;;;;;;;7.18;3.00;;;12.00;69.20;;;;;;5034964;28;20272;-76
2021/10/11 06:21:50;;;;;;;4.50;2.85;;;12.00;69.50;;;;;;5033556;28;20033;-81
2021/10/11 06:24:16;;;;;;;8.90;3.15;;;12.10;69.60;;;;;;5033052;28;20030;-82
2021/10/11 06:26:42;;;;;;;4.90;2.80;;;12.10;69.30;;;;;;5033843;28;20018;-78
2021/10/11 06:29:07;;;;;;;6.47;3.33;;;12.10;69.20;;;;;;5034307;28;20029;-78
2021/10/11 06:31:34;;;;;;;5.93;3.15;;;12.10;69.60;;;;;;5031725;28;20517;-73
2021/10/11 06:34:00;;;;;;;7.38;3.03;;;12.10;70.10;;;;;;5031904;28;20108;-67
2021/10/11 06:36:28;;;;;;;8.15;3.10;;;12.00;70.00;;;;;;5036004;28;20049;-70
2021/10/11 06:38:53;;;;;;;8.75;3.30;;;12.00;70.70;;;;;;5035555;28;20029;-68
2021/10/11 06:41:19;;;;;;;5.43;3.15;;;12.00;71.50;;;;;;5035490;28;20028;-67
2021/10/11 06:43:45;;;;;;;3.53;2.47;;;11.90;70.20;;;;;;5034995;28;20104;-68
2021/10/11 06:46:11;;;;;;;3.40;2.30;;;12.00;70.20;;;;;;5035520;28;20117;-68
2021/10/11 06:48:36;;;;;;;7.82;3.03;;;11.90;69.80;;;;;;5035505;28;20025;-68
2021/10/11 06:51:04;;;;;;;7.03;3.00;;;11.90;69.50;;;;;;5035335;28;20076;-67
2021/10/11 06:53:30;;;;;;;4.30;2.92;;;11.90;69.40;;;;;;5035533;28;20060;-68
2021/10/11 06:55:56;;;;;;;9.07;3.15;;;12.00;69.50;;;;;;5034794;28;20377;-68
2021/10/11 06:58:21;;;;;;;6.30;3.00;;;12.00;69.40;;;;;;5034213;28;20033;-67
2021/10/11 07:00:47;;;;;;;3.85;2.70;;;12.00;70.30;;;;;;5034896;28;20513;-68
2021/10/11 07:03:13;;;;;;;7.75;2.90;;;12.10;70.50;;;;;;5035287;28;20057;-69
2021/10/11 07:05:38;;;;;;;9.02;3.05;;;12.10;71.20;;;;;;5034507;28;20394;-68
2021/10/11 07:08:13;;;;;;;6.65;3.17;;;12.10;71.40;;;;;;5033639;28;20030;-70
2021/10/11 07:10:39;;;;;;;6.50;3.05;;;12.20;71.10;;;;;;5034588;28;20504;-68
2021/10/11 07:13:05;;;;;;;8.70;3.40;;;12.20;70.80;;;;;;5035010;28;20033;-69
2021/10/11 07:15:30;;;;;;;7.80;2.83;;;12.40;73.40;;;;;;5035283;28;20025;-68
2021/10/11 07:17:56;;;;;;;9.38;3.28;;;12.40;70.60;;;;;;5035176;28;20110;-68
2021/10/11 07:20:23;;;;;;;5.43;3.05;;;12.40;70.10;;;;;;5033916;28;20032;-68
2021/10/11 07:22:48;;;;;;;10.90;4.15;;;12.50;69.90;;;;;;5034706;28;20033;-71
2021/10/11 07:25:14;;;;;;;11.63;3.25;;;12.50;69.50;;;;;;5035203;28;20030;-68
2021/10/11 07:27:40;;;;;;;7.82;3.13;;;12.60;69.20;;;;;;5034739;28;20049;-69
2021/10/11 07:30:06;;;;;;;14.93;3.97;;;12.70;68.70;;;;;;5035073;28;20026;-69
2021/10/11 07:32:32;;;;;;;7.78;3.10;;;12.80;68.20;;;;;;5035000;28;20511;-70
2021/10/11 07:34:59;;;;;;;6.88;2.67;;;12.80;67.80;;;;;;5034994;28;20068;-68
2021/10/11 07:37:25;;;;;;;5.35;2.70;;;12.90;67.00;;;;;;5034687;28;20368;-68
2021/10/11 07:39:50;;;;;;;5.82;3.30;;;12.90;66.60;;;;;;5034572;28;20032;-68
2021/10/11 07:42:16;;;;;;;4.13;2.63;;;13.00;66.40;;;;;;5035000;28;20025;-69
2021/10/11 07:44:42;;;;;;;7.05;3.22;;;13.00;66.50;;;;;;5034583;28;20390;-68
2021/10/11 07:47:08;;;;;;;4.63;2.63;;;13.00;66.50;;;;;;5034376;28;20104;-70
2021/10/11 07:49:34;;;;;;;5.50;2.88;;;13.10;65.90;;;;;;5034021;28;20036;-67
2021/10/11 07:51:59;;;;;;;7.68;3.13;;;13.10;65.70;;;;;;5034055;28;20037;-69
2021/10/11 07:54:25;;;;;;;8.70;2.78;;;13.20;65.60;;;;;;5034132;28;20025;-69
2021/10/11 07:56:51;;;;;;;4.63;3.00;;;13.20;65.40;;;;;;5034371;28;20030;-69
2021/10/11 07:59:17;;;;;;;6.10;2.78;;;13.30;67.00;;;;;;5033871;28;20025;-68
2021/10/11 08:01:42;;;;;;;8.43;3.20;;;13.40;64.30;;;;;;5032068;28;20397;-70
2021/10/11 08:04:08;;;;;;;8.13;3.45;;;13.40;64.10;;;;;;5033928;28;20564;-68
2021/10/11 08:06:34;;;;;;;4.10;2.58;;;13.50;63.60;;;;;;5033938;28;20026;-69
2021/10/11 08:08:59;;;;;;;6.82;2.67;;;13.70;63.30;;;;;;5033688;28;20466;-71
2021/10/11 08:11:25;;;;;;;9.52;2.90;;;13.70;62.10;;;;;;5033055;28;20033;-68
2021/10/11 08:13:51;;;;;;;7.28;2.50;;;13.90;61.80;;;;;;5033233;28;20033;-69
2021/10/11 08:16:17;;;;;;;7.28;2.15;;;13.90;61.80;;;;;;5033784;28;20441;-70
2021/10/11 08:18:43;;;;;;;6.68;3.00;;;14.00;61.10;;;;;;5033742;28;20040;-69
2021/10/11 08:21:09;;;;;;;5.60;2.97;;;14.10;60.70;;;;;;5033892;28;20026;-71
2021/10/11 08:23:39;;;;;;;4.93;2.42;;;14.20;61.00;;;;;;5033854;28;20030;-68
2021/10/11 08:26:09;;;;;;;6.07;2.47;;;14.30;61.00;;;;;;5033876;28;20037;-70
2021/10/11 08:28:35;;;;;;;4.85;2.78;;;14.40;60.30;;;;;;5034007;28;20018;-71
2021/10/11 08:31:01;;;;;;;5.72;2.65;;;14.40;59.80;;;;;;5034093;28;20080;-71
2021/10/11 08:33:27;;;;;;;6.78;2.85;;;14.40;59.90;;;;;;5033739;28;20036;-72
2021/10/11 08:35:52;;;;;;;6.05;2.40;;;14.50;59.40;;;;;;5031833;28;20103;-71
2021/10/11 08:38:18;;;;;;;8.75;2.70;;;14.50;58.20;;;;;;5032968;28;20091;-69
2021/10/11 08:40:47;;;;;;;5.70;2.70;;;14.50;57.60;;;;;;5031968;28;20092;-70
2021/10/11 08:43:12;;;;;;;5.70;2.40;;;14.60;59.30;;;;;;5033523;28;20061;-70
2021/10/11 08:45:40;;;;;;;4.82;2.35;;;14.70;59.00;;;;;;5033659;28;20022;-70
2021/10/11 08:48:06;;;;;;;4.68;3.08;;;14.70;58.60;;;;;;5033641;28;20482;-69
2021/10/11 08:50:32;;;;;;;7.47;2.67;;;14.80;58.40;;;;;;5033699;28;20528;-70
2021/10/11 08:52:59;;;;;;;4.60;2.63;;;14.90;58.60;;;;;;5033358;28;20034;-71
2021/10/11 08:55:25;;;;;;;5.32;2.60;;;14.90;59.40;;;;;;5033757;28;20084;-71
2021/10/11 08:58:03;;;;;;;7.80;3.17;;;15.00;58.70;;;;;;5033537;28;20405;-71
2021/10/11 09:00:37;;;;;;;7.82;3.03;;;15.00;58.90;;;;;;5033169;28;20025;-71
2021/10/11 09:03:04;;;;;;;7.47;3.10;;;15.10;58.70;;;;;;5033549;28;20026;-71
2021/10/11 09:05:41;;;;;;;9.65;3.05;;;15.20;58.90;;;;;;5033151;28;20029;-72
2021/10/11 09:08:10;;;;;;;5.03;2.70;;;15.30;58.70;;;;;;5033319;28;20379;-71
2021/10/11 09:10:49;;;;;;;6.50;2.97;;;15.30;58.60;;;;;;5032970;28;20425;-71
2021/10/11 09:13:15;;;;;;;4.95;3.00;;;15.40;59.00;;;;;;5033202;28;20091;-71
2021/10/11 09:15:41;;;;;;;4.88;2.97;;;15.50;58.50;;;;;;5033309;28;20421;-69
2021/10/11 09:18:07;;;;;;;4.63;2.55;;;15.60;58.10;;;;;;5033508;28;20025;-70
2021/10/11 09:20:39;;;;;;;6.97;2.90;;;15.70;58.20;;;;;;5033149;28;20030;-69
2021/10/11 09:23:05;;;;;;;;;;;15.80;58.00;;;;;;5033781;28;20048;-68
2021/10/11 09:25:40;;;;;;;5.38;2.70;;;15.80;58.00;;;;;;5033098;28;19951;-69
2021/10/11 09:28:07;;;;;;;9.48;3.10;;;15.90;57.80;;;;;;5033365;28;20026;-71
2021/10/11 09:30:38;;;;;;;6.80;2.80;;;16.00;57.70;;;;;;5032798;28;20516;-70
2021/10/11 09:33:09;;;;;;;7.65;2.97;;;16.10;57.20;;;;;;5033131;28;20045;-68
2021/10/11 09:35:36;;;;;;;10.37;2.97;;;16.10;57.40;;;;;;5033323;28;20050;-69
2021/10/11 09:38:04;;;;;;;8.18;3.38;;;16.20;57.70;;;;;;5033190;28;20260;-68
2021/10/11 09:40:40;;;;;;;7.50;2.60;;;16.30;56.90;;;;;;5032776;28;20030;-68
2021/10/11 09:43:17;;;;;;;3.00;2.40;;;16.30;56.80;;;;;;5033001;28;20087;-69
2021/10/11 09:45:43;;;;;;;4.80;2.35;;;16.40;56.20;;;;;;5033056;28;20029;-68
2021/10/11 09:48:10;;;;;;;11.73;2.70;;;16.40;56.20;;;;;;5037141;28;20029;-69
2021/10/11 09:50:36;;;;;;;11.77;3.50;;;16.50;55.70;;;;;;5036563;28;20026;-69
2021/10/11 09:53:04;;;;;;;9.15;3.17;;;16.50;55.90;;;;;;5036475;28;20040;-73
2021/10/11 09:55:30;;;;;;;7.55;3.03;;;16.60;55.70;;;;;;5036194;28;20095;-71
2021/10/11 09:58:00;;;;;;;5.38;2.53;;;16.70;55.20;;;;;;5036606;28;20083;-68
2021/10/11 10:00:26;;;;;;;3.97;2.10;;;16.70;55.10;;;;;;5036354;28;20546;-69
2021/10/11 10:02:54;;;;;;;5.78;2.40;;;16.80;54.90;;;;;;5034772;28;20026;-67
2021/10/11 10:05:34;;;;;;;7.20;2.25;;;16.80;54.40;;;;;;5035725;28;20497;-73
2021/10/11 10:08:06;;;;;;;4.75;2.55;;;16.80;54.40;;;;;;5011377;28;20027;-68
2021/10/11 10:10:33;;;;;;;13.15;3.63;;;16.90;55.10;;;;;;5035842;28;20017;-69
2021/10/11 10:12:59;;;;;;;7.13;2.80;;;16.90;54.80;;;;;;5035553;28;20069;-69
2021/10/11 10:15:31;;;;;;;5.13;2.15;;;17.00;54.50;;;;;;5036614;28;20057;-67
2021/10/11 10:18:05;;;;;;;14.50;3.00;;;17.00;54.60;;;;;;5037513;28;20029;-75
2021/10/11 10:20:32;;;;;;;7.55;2.40;;;17.20;54.80;;;;;;5035482;28;20045;-75
2021/10/11 10:22:58;;;;;;;9.60;2.33;;;17.20;54.70;;;;;;5035273;28;20096;-69
2021/10/11 10:25:24;;;;;;;6.40;2.10;;;17.30;54.40;;;;;;5036145;28;20389;-68
2021/10/11 10:27:54;;;;;;;5.30;2.17;;;17.40;54.40;;;;;;5035851;28;20486;-68
2021/10/11 10:30:24;;;;;;;5.28;2.20;;;17.50;53.90;;;;;;5035603;28;20037;-67
2021/10/11 10:32:59;;;;;;;5.20;2.03;;;17.50;53.20;;;;;;5035835;28;20041;-69
2021/10/11 10:35:29;;;;;;;6.78;2.22;;;17.50;52.50;;;;;;5035675;28;20446;-70
2021/10/11 10:37:56;;;;;;;9.10;2.42;;;17.60;53.40;;;;;;5035705;28;20036;-71
2021/10/11 10:40:26;;;;;;;6.47;2.28;;;17.70;53.40;;;;;;5035846;28;20112;-68
2021/10/11 10:43:09;;;;;;;4.18;1.95;;;17.70;53.70;;;;;;5035955;28;20104;-69
2021/10/11 10:45:35;;;;;;;;;;;17.80;53.00;;;;;;5036334;28;20017;-71
2021/10/11 10:48:03;;;;;;;9.13;2.20;;;17.90;53.20;;;;;;5035851;28;19909;-69
2021/10/11 10:50:32;;;;;;;5.47;2.20;;;18.00;52.70;;;;;;5035595;28;20022;-68
2021/10/11 10:53:02;;;;;;;4.07;1.90;;;18.10;53.10;;;;;;5035819;28;20030;-69
2021/10/11 10:55:28;;;;;;;6.20;2.05;;;18.20;53.40;;;;;;5035817;28;20398;-68
2021/10/11 10:58:00;;;;;;;6.18;2.20;;;18.40;53.40;;;;;;5034534;28;20022;-70
2021/10/11 11:00:26;;;;;;;6.88;2.22;;;18.40;52.70;;;;;;5035581;28;20030;-72
2021/10/11 11:02:52;;;;;;;4.45;2.28;;;18.60;53.30;;;;;;5035631;28;20032;-70
2021/10/11 11:05:21;;;;;;;3.25;1.73;;;18.70;53.00;;;;;;5035089;28;20029;-68
2021/10/11 11:07:47;;;;;;;3.85;1.88;;;18.70;51.40;;;;;;5035251;28;20021;-68
2021/10/11 11:10:26;;;;;;;5.28;2.08;;;18.80;51.00;;;;;;5034969;28;20021;-69
2021/10/11 11:13:00;;;;;;;4.35;1.92;;;18.80;51.80;;;;;;5035082;28;20053;-73
2021/10/11 11:15:37;;;;;;;8.77;2.15;;;18.80;50.70;;;;;;5035141;28;20032;-72
2021/10/11 11:18:05;;;;;;;3.33;1.77;;;18.80;50.60;;;;;;5034987;28;20093;-73
2021/10/11 11:20:35;;;;;;;3.60;1.80;;;18.80;51.50;;;;;;5034921;28;20101;-72
2021/10/11 11:23:07;;;;;;;4.88;2.28;;;18.90;51.70;;;;;;5035031;28;20025;-72
2021/10/11 11:25:35;;;;;;;6.95;1.90;;;18.90;50.10;;;;;;5050326;28;20053;-73
2021/10/11 11:28:05;;;;;;;4.13;1.92;;;18.90;50.50;;;;;;5034760;28;20029;-68
2021/10/11 11:30:31;;;;;;;2.83;1.90;;;18.90;51.30;;;;;;5031408;28;20049;-69
2021/10/11 11:33:11;;;;;;;5.15;1.95;;;18.90;51.10;;;;;;5032010;28;20048;-69
2021/10/11 11:35:53;;;;;;;4.55;1.80;;;18.90;50.60;;;;;;5032797;28;20029;-74
2021/10/11 11:38:28;;;;;;;6.93;2.00;;;18.90;51.30;;;;;;5034737;28;20152;-70
2021/10/11 11:41:02;;;;;;;4.22;2.30;;;18.90;50.20;;;;;;5034602;28;20378;-68
2021/10/11 11:43:30;;;;;;;3.55;1.90;;;19.00;51.30;;;;;;5034525;28;20067;-69
2021/10/11 11:45:57;;;;;;;4.40;1.95;;;19.00;51.10;;;;;;5034380;28;20033;-69
2021/10/11 11:48:27;;;;;;;4.22;2.00;;;19.10;50.70;;;;;;5034662;28;20045;-68
2021/10/11 11:50:59;;;;;;;3.95;2.03;;;19.10;50.10;;;;;;5033913;28;20386;-68
2021/10/11 11:53:26;;;;;;;4.28;1.70;;;19.10;50.40;;;;;;5034547;28;20043;-68
2021/10/11 11:55:57;;;;;;;5.45;1.90;;;19.20;50.60;;;;;;5034505;28;20025;-68
2021/10/11 11:58:29;;;;;;;6.33;1.87;;;19.30;49.80;;;;;;5034185;28;20616;-69
2021/10/11 12:01:08;;;;;;;5.30;1.90;;;19.30;49.40;;;;;;5034036;28;20029;-70
2021/10/11 12:03:37;;;;;;;4.57;1.50;;;19.30;49.60;;;;;;5034140;28;20026;-69
2021/10/11 12:06:05;;;;;;;3.42;1.65;;;19.40;49.70;;;;;;5033715;28;20017;-70
2021/10/11 12:08:31;;;;;;;3.78;1.73;;;19.40;49.50;;;;;;5033966;28;20474;-75
2021/10/11 12:10:57;;;;;;;3.55;1.90;;;19.30;48.60;;;;;;5033762;28;20037;-74
2021/10/11 12:13:28;;;;;;;5.45;1.90;;;19.30;49.30;;;;;;5033811;28;20033;-75
2021/10/11 12:16:17;;;;;;;8.38;1.77;;;19.20;49.50;;;;;;5033778;28;20076;-76
2021/10/11 12:18:45;;;;;;;4.80;2.13;;;19.20;49.20;;;;;;5034006;28;20029;-76
2021/10/11 12:21:29;;;;;;;4.95;1.90;;;19.20;49.20;;;;;;5031357;28;20017;-73
2021/10/11 12:24:18;;;;;;;3.17;1.65;;;19.30;49.90;;;;;;5031104;28;20033;-74
2021/10/11 12:26:52;;;;;;;2.72;1.70;;;19.30;49.70;;;;;;5033079;28;20030;-73
2021/10/11 12:29:21;;;;;;;3.38;1.90;;;19.30;49.30;;;;;;5033661;28;20547;-74
2021/10/11 12:31:59;;;;;;;6.85;2.05;;;19.30;49.80;;;;;;5033224;28;20053;-72
2021/10/11 12:34:39;;;;;;;4.15;1.75;;;19.40;49.60;;;;;;5034053;28;20416;-74
2021/10/11 13:01:29;;;;;;;5.57;1.77;;;19.00;49.90;;;;;;5131340;27;20110;-74
2021/10/11 13:03:55;;;;;;;3.08;2.03;;;18.90;50.60;;;;;;5130747;28;20121;-73
2021/10/11 13:06:26;;;;;;;3.33;2.20;;;18.90;50.70;;;;;;5131017;28;20027;-74
2021/10/11 13:08:52;;;;;;;4.93;2.25;;;18.80;50.50;;;;;;5130777;28;20372;-73
2021/10/11 13:11:18;;;;;;;3.55;2.08;;;18.80;50.50;;;;;;5130718;27;20077;-75
2021/10/11 13:13:45;;;;;;;5.57;2.53;;;18.80;51.00;;;;;;5130947;27;20023;-75